createdAt,value
2022-11-12T00:02:02.391Z,49.30
2022-11-12T00:04:54.024Z,48.30
2022-11-12T00:07:44.916Z,46.10
2022-11-12T00:10:35.275Z,37.70
2022-11-12T00:13:27.592Z,37.60
2022-11-12T00:16:18.470Z,38.30
2022-11-12T00:19:09.777Z,41.30
2022-11-12T00:22:00.446Z,42.80
2022-11-12T00:27:41.837Z,45.40
2022-11-12T00:30:32.800Z,42.50
2022-11-12T00:33:23.783Z,45.10
2022-11-12T00:36:14.899Z,39.90
2022-11-12T00:39:06.750Z,48.30
2022-11-12T00:41:59.938Z,39.50
2022-11-12T00:44:51.215Z,43.00
2022-11-12T00:47:42.359Z,43.60
2022-11-12T00:50:33.022Z,40.60
2022-11-12T00:56:12.752Z,44.30
2022-11-12T00:59:04.249Z,45.50
2022-11-12T01:01:55.373Z,49.40
2022-11-12T01:04:47.429Z,50.50
2022-11-12T01:07:38.480Z,44.10
2022-11-12T01:13:21.901Z,43.30
2022-11-12T01:16:15.107Z,45.30
2022-11-12T01:19:09.258Z,44.90
2022-11-12T01:22:00.601Z,44.00
2022-11-12T01:24:51.607Z,46.70
2022-11-12T01:30:31.399Z,38.70
2022-11-12T01:33:22.693Z,35.50
2022-11-12T01:36:14.832Z,42.40
2022-11-12T01:39:06.182Z,42.50
2022-11-12T01:42:00.636Z,40.20
2022-11-12T01:44:54.727Z,44.40
2022-11-12T01:47:47.719Z,40.50
2022-11-12T01:50:41.979Z,40.70
2022-11-12T01:53:37.719Z,41.50
2022-11-12T01:56:31.972Z,44.90
2022-11-12T01:59:30.226Z,43.60
2022-11-12T02:02:21.734Z,45.80
2022-11-12T02:05:14.509Z,45.70
2022-11-12T02:08:11.182Z,39.80
2022-11-12T02:11:15.129Z,46.90
2022-11-12T02:14:06.891Z,35.90
2022-11-12T02:16:58.076Z,43.10
2022-11-12T02:19:49.577Z,43.00
2022-11-12T02:22:42.445Z,43.50
2022-11-12T02:25:34.673Z,37.00
2022-11-12T02:28:26.064Z,41.20
2022-11-12T02:31:17.446Z,41.30
2022-11-12T02:34:08.089Z,44.70
2022-11-12T02:36:59.913Z,39.50
2022-11-12T02:39:50.867Z,39.10
2022-11-12T02:42:41.952Z,44.50
2022-11-12T02:45:33.454Z,41.60
2022-11-12T02:48:24.103Z,40.60
2022-11-12T02:51:15.544Z,42.30
2022-11-12T02:54:09.880Z,40.50
2022-11-12T02:57:01.362Z,39.60
2022-11-12T02:59:52.374Z,41.10
2022-11-12T03:05:36.268Z,40.00
2022-11-12T03:08:28.260Z,41.30
2022-11-12T03:11:20.125Z,37.60
2022-11-12T03:14:10.876Z,37.10
2022-11-12T03:17:01.950Z,41.00
2022-11-12T03:19:53.068Z,39.50
2022-11-12T03:22:45.107Z,39.70
2022-11-12T03:25:36.642Z,37.30
2022-11-12T03:28:28.580Z,40.20
2022-11-12T03:31:20.116Z,35.80
2022-11-12T03:34:13.582Z,35.60
2022-11-12T03:37:04.619Z,39.90
2022-11-12T03:39:55.621Z,40.50
2022-11-12T03:42:52.646Z,38.90
2022-11-12T03:45:43.457Z,39.90
2022-11-12T03:48:34.569Z,38.40
2022-11-12T03:51:25.539Z,37.00
2022-11-12T03:54:20.244Z,39.70
2022-11-12T03:57:11.814Z,36.00
2022-11-12T04:00:03.053Z,36.10
2022-11-12T04:02:54.631Z,38.10
2022-11-12T04:06:03.211Z,39.40
2022-11-12T04:08:54.355Z,34.30
2022-11-12T04:11:45.263Z,34.20
2022-11-12T04:14:36.362Z,36.60
2022-11-12T04:20:51.490Z,37.40
2022-11-12T04:23:42.891Z,34.30
2022-11-12T04:26:34.264Z,32.50
2022-11-12T04:29:42.983Z,34.90
2022-11-12T04:32:35.248Z,33.50
2022-11-12T04:35:28.350Z,40.30
2022-11-12T04:38:19.552Z,32.70
2022-11-12T04:41:28.232Z,34.40
2022-11-12T04:44:36.801Z,38.40
2022-11-12T04:47:28.020Z,33.50
2022-11-12T04:50:19.538Z,37.60
2022-11-12T04:53:10.639Z,32.20
2022-11-12T04:56:02.179Z,33.10
2022-11-12T04:58:53.510Z,35.00
2022-11-12T05:01:44.790Z,30.10
2022-11-12T05:04:35.969Z,32.80
2022-11-12T05:07:27.359Z,29.40
2022-11-12T05:10:20.137Z,34.00
2022-11-12T05:13:14.982Z,34.90
2022-11-12T05:16:06.306Z,33.10
2022-11-12T05:18:57.159Z,34.20
2022-11-12T05:24:56.059Z,32.30
2022-11-12T05:27:47.841Z,27.70
2022-11-12T05:30:38.989Z,32.90
2022-11-12T05:33:29.802Z,32.50
2022-11-12T05:36:23.023Z,31.90
2022-11-12T05:39:14.253Z,41.80
2022-11-12T05:42:12.992Z,33.20
2022-11-12T05:45:05.048Z,32.10
2022-11-12T05:47:55.968Z,30.90
2022-11-12T05:51:11.983Z,30.60
2022-11-12T05:54:02.239Z,29.00
2022-11-12T05:56:54.751Z,35.30
2022-11-12T05:59:46.160Z,32.70
2022-11-12T06:02:37.163Z,31.10
2022-11-12T06:05:28.328Z,34.30
2022-11-12T06:08:19.168Z,29.50
2022-11-12T06:11:10.129Z,30.10
2022-11-12T06:14:01.585Z,29.60
2022-11-12T06:16:52.091Z,30.20
2022-11-12T06:19:42.993Z,31.00
2022-11-12T06:25:51.162Z,25.80
2022-11-12T06:28:42.011Z,30.90
2022-11-12T06:31:32.702Z,25.90
2022-11-12T06:37:13.148Z,29.10
2022-11-12T06:40:04.181Z,30.40
2022-11-12T06:43:01.302Z,27.50
2022-11-12T06:45:52.685Z,27.00
2022-11-12T06:48:43.754Z,27.30
2022-11-12T06:51:34.540Z,33.60
2022-11-12T06:54:25.556Z,30.00
2022-11-12T06:57:16.465Z,30.50
2022-11-12T07:00:09.604Z,34.50
2022-11-12T07:03:00.340Z,35.70
2022-11-12T07:05:51.291Z,35.50
2022-11-12T07:08:42.991Z,33.20
2022-11-12T07:11:34.062Z,34.20
2022-11-12T07:17:13.653Z,31.50
2022-11-12T07:22:55.420Z,35.30
2022-11-12T07:28:36.709Z,27.60
2022-11-12T07:31:27.412Z,36.20
2022-11-12T07:34:19.328Z,34.60
2022-11-12T07:37:10.270Z,53.20
2022-11-12T07:40:01.289Z,50.50
2022-11-12T07:45:43.746Z,65.70
2022-11-12T07:48:35.227Z,75.40
2022-11-12T07:51:34.201Z,72.00
2022-11-12T07:54:24.760Z,54.90
2022-11-12T07:57:15.649Z,56.30
2022-11-12T08:00:08.127Z,52.50
2022-11-12T08:03:02.335Z,43.90
2022-11-12T08:05:53.105Z,41.50
2022-11-12T08:08:44.798Z,56.10
2022-11-12T08:11:36.649Z,47.60
2022-11-12T08:14:27.216Z,55.50
2022-11-12T08:17:17.858Z,44.20
2022-11-12T08:20:10.606Z,42.20
2022-11-12T08:23:03.553Z,44.00
2022-11-12T08:25:54.136Z,42.60
2022-11-12T08:28:44.863Z,48.70
2022-11-12T08:31:38.287Z,39.30
2022-11-12T08:34:29.558Z,28.10
2022-11-12T08:37:20.444Z,26.10
2022-11-12T08:40:14.872Z,30.30
2022-11-12T08:43:08.185Z,22.30
2022-11-12T08:46:01.586Z,23.10
2022-11-12T08:48:52.743Z,23.10
2022-11-12T08:51:43.650Z,21.50
2022-11-12T08:54:37.196Z,33.50
2022-11-12T08:57:28.360Z,17.60
2022-11-12T09:00:20.765Z,19.20
2022-11-12T09:03:16.958Z,16.30
2022-11-12T09:06:09.332Z,16.70
2022-11-12T09:09:00.056Z,13.00
2022-11-12T09:11:50.807Z,15.10
2022-11-12T09:14:41.848Z,17.80
2022-11-12T09:17:35.319Z,19.50
2022-11-12T09:20:26.076Z,22.40
2022-11-12T09:23:17.882Z,18.30
2022-11-12T09:26:09.463Z,19.30
2022-11-12T09:29:00.238Z,18.70
2022-11-12T09:31:51.332Z,16.40
2022-11-12T09:34:44.970Z,14.10
2022-11-12T09:37:38.412Z,16.50
2022-11-12T09:40:40.122Z,19.60
2022-11-12T09:43:35.552Z,13.80
2022-11-12T09:46:37.813Z,16.20
2022-11-12T09:49:34.401Z,25.30
2022-11-12T09:52:28.839Z,19.50
2022-11-12T09:55:29.279Z,18.10
2022-11-12T09:58:22.328Z,15.30
2022-11-12T10:01:19.758Z,29.80
2022-11-12T10:04:27.942Z,19.20
2022-11-12T10:07:28.800Z,16.20
2022-11-12T10:10:25.562Z,16.40
2022-11-12T10:13:34.393Z,16.90
2022-11-12T10:16:43.919Z,16.60
2022-11-12T10:20:01.301Z,26.40
2022-11-12T10:23:07.818Z,19.00
2022-11-12T10:26:02.471Z,16.90
2022-11-12T10:29:00.592Z,12.10
2022-11-12T10:31:51.363Z,16.70
2022-11-12T10:34:43.030Z,15.40
2022-11-12T10:37:42.828Z,18.10
2022-11-12T10:40:37.619Z,22.00
2022-11-12T10:43:28.573Z,28.40
2022-11-12T10:46:40.658Z,21.70
2022-11-12T10:54:53.933Z,33.60
2022-11-12T10:59:19.007Z,19.50
2022-11-12T11:03:48.165Z,44.20
2022-11-12T11:11:32.260Z,22.40
2022-11-12T11:14:38.427Z,20.80
2022-11-12T11:17:30.567Z,21.70
2022-11-12T11:20:26.572Z,17.80
2022-11-12T11:23:21.768Z,26.90
2022-11-12T11:26:28.388Z,20.10
2022-11-12T11:29:31.522Z,24.50
2022-11-12T11:32:37.738Z,24.60
2022-11-12T11:35:36.105Z,25.00
2022-11-12T11:38:40.761Z,17.90
2022-11-12T11:41:55.471Z,19.60
2022-11-12T11:48:10.539Z,46.10
2022-11-12T11:51:09.161Z,21.80
2022-11-12T11:54:15.152Z,32.60
2022-11-12T11:57:16.960Z,19.30
2022-11-12T12:00:17.400Z,29.40
2022-11-12T12:06:25.007Z,37.80
2022-11-12T12:09:29.067Z,19.40
2022-11-12T12:12:33.938Z,17.80
2022-11-12T12:15:47.070Z,17.10
2022-11-12T12:18:47.952Z,16.90
2022-11-12T12:21:42.310Z,17.30
2022-11-12T12:24:38.482Z,17.00
2022-11-12T12:27:36.230Z,25.60
2022-11-12T12:30:27.707Z,19.70
2022-11-12T12:46:00.564Z,31.90
2022-11-12T12:48:54.130Z,20.10
2022-11-12T12:52:53.148Z,67.00
2022-11-12T13:00:52.128Z,19.50
2022-11-12T13:03:52.962Z,23.10
2022-11-12T13:06:55.086Z,22.50
2022-11-12T13:09:45.942Z,23.40
2022-11-12T13:13:07.355Z,33.70
2022-11-12T13:15:59.772Z,23.60
2022-11-12T13:19:03.683Z,23.30
2022-11-12T13:22:49.437Z,28.30
2022-11-12T13:25:40.488Z,53.60
2022-11-12T13:28:30.854Z,33.70
2022-11-12T13:31:30.883Z,27.80
2022-11-12T13:34:32.957Z,30.00
2022-11-12T13:37:25.620Z,27.90
2022-11-12T13:40:21.955Z,23.60
2022-11-12T13:43:23.347Z,27.60
2022-11-12T13:46:29.086Z,28.40
2022-11-12T13:49:20.699Z,34.90
2022-11-12T13:52:15.182Z,29.60
2022-11-12T13:55:08.773Z,26.80
2022-11-12T13:57:59.583Z,24.40
2022-11-12T14:00:56.398Z,23.90
2022-11-12T14:03:50.791Z,25.70
2022-11-12T14:06:45.065Z,20.70
2022-11-12T14:09:52.114Z,19.10
2022-11-12T14:13:03.795Z,17.50
2022-11-12T14:16:06.447Z,19.50
2022-11-12T14:19:34.943Z,26.20
2022-11-12T14:22:26.083Z,30.50
2022-11-12T14:25:21.693Z,32.70
2022-11-12T14:28:30.724Z,41.20
2022-11-12T14:31:29.463Z,32.40
2022-11-12T14:34:24.194Z,33.10
2022-11-12T14:37:39.929Z,32.70
2022-11-12T14:40:38.839Z,47.20
2022-11-12T14:43:37.097Z,36.40
2022-11-12T14:46:31.305Z,56.30
2022-11-12T14:49:29.205Z,61.00
2022-11-12T14:52:23.422Z,58.20
2022-11-12T14:55:18.583Z,47.60
2022-11-12T14:58:14.082Z,40.20
2022-11-12T15:04:42.884Z,43.70
2022-11-12T15:07:36.307Z,47.20
2022-11-12T15:10:37.670Z,44.90
2022-11-12T15:13:29.494Z,44.70
2022-11-12T15:16:23.691Z,49.00
2022-11-12T15:19:23.535Z,46.30
2022-11-12T15:22:23.300Z,46.20
2022-11-12T15:25:23.042Z,47.30
2022-11-12T15:28:24.266Z,50.10
2022-11-12T15:31:25.311Z,48.00
2022-11-12T15:34:28.265Z,49.00
2022-11-12T15:37:27.226Z,46.50
2022-11-12T15:40:22.171Z,47.30
2022-11-12T15:43:18.365Z,46.60
2022-11-12T15:46:15.945Z,49.20
2022-11-12T15:49:14.345Z,40.90
2022-11-12T15:52:04.916Z,40.20
2022-11-12T15:54:55.461Z,45.00
2022-11-12T16:00:39.189Z,38.00
2022-11-12T16:03:31.416Z,37.80
2022-11-12T16:06:22.290Z,41.20
2022-11-12T16:09:13.082Z,44.20
2022-11-12T16:14:53.895Z,32.50
2022-11-12T16:20:35.186Z,37.40
2022-11-12T16:23:26.168Z,39.90
2022-11-12T16:26:22.131Z,40.40
2022-11-12T16:29:14.763Z,34.10
2022-11-12T16:32:06.149Z,36.70
2022-11-12T16:35:01.055Z,42.40
2022-11-12T16:37:54.422Z,40.20
2022-11-12T16:40:46.194Z,37.00
2022-11-12T16:43:39.807Z,39.10
2022-11-12T16:52:09.884Z,50.70
2022-11-12T16:59:52.948Z,59.20
2022-11-12T17:07:36.797Z,58.10
2022-11-12T17:10:52.089Z,53.10
2022-11-12T17:14:14.961Z,57.70
2022-11-12T17:31:28.067Z,54.00
2022-11-12T17:39:13.368Z,63.10
2022-11-12T17:55:11.023Z,76.50
2022-11-12T17:58:02.675Z,70.80
2022-11-12T18:00:53.457Z,69.40
2022-11-12T18:03:48.669Z,72.10
2022-11-12T18:06:39.803Z,73.20
2022-11-12T18:09:33.201Z,71.10
2022-11-12T18:12:23.837Z,78.30
2022-11-12T18:15:17.058Z,80.10
2022-11-12T18:18:08.189Z,79.30
2022-11-12T18:20:59.172Z,81.40
2022-11-12T18:23:49.769Z,86.20
2022-11-12T18:29:29.884Z,80.10
2022-11-12T18:32:20.888Z,73.30
2022-11-12T18:35:12.269Z,76.50
2022-11-12T18:38:03.951Z,79.20
2022-11-12T18:41:04.307Z,82.60
2022-11-12T18:43:55.406Z,91.50
2022-11-12T18:47:21.027Z,80.50
2022-11-12T18:50:36.066Z,96.10
2022-11-12T18:53:36.265Z,110.50
2022-11-12T18:56:50.904Z,98.30
2022-11-12T19:04:45.224Z,68.00
2022-11-12T19:08:07.149Z,71.40
2022-11-12T19:21:10.704Z,111.00
2022-11-12T19:24:25.801Z,88.60
2022-11-12T19:27:48.017Z,97.40
2022-11-12T19:31:26.246Z,105.80
2022-11-12T19:34:52.935Z,103.10
2022-11-12T19:38:08.148Z,121.00
2022-11-12T19:41:30.041Z,118.20
2022-11-12T19:44:45.191Z,130.30
2022-11-12T19:49:08.516Z,140.70
2022-11-12T19:57:24.089Z,203.70
2022-11-12T20:00:39.548Z,168.40
2022-11-12T20:03:55.629Z,191.00
2022-11-12T20:06:52.925Z,203.90
2022-11-12T20:09:44.612Z,238.50
2022-11-12T20:13:01.836Z,213.80
2022-11-12T20:20:54.194Z,160.00
2022-11-12T20:24:43.132Z,147.00
2022-11-12T20:28:05.631Z,123.50
2022-11-12T20:31:22.251Z,135.70
2022-11-12T20:34:44.192Z,128.10
2022-11-12T20:38:00.046Z,137.30
2022-11-12T20:41:24.499Z,183.10
2022-11-12T20:44:46.984Z,182.60
2022-11-12T20:47:38.391Z,178.50
2022-11-12T20:50:29.386Z,183.10
2022-11-12T20:53:20.458Z,193.50
2022-11-12T20:56:12.930Z,170.70
2022-11-12T20:59:03.603Z,167.20
2022-11-12T21:04:43.945Z,162.40
2022-11-12T21:07:34.959Z,176.00
2022-11-12T21:10:25.693Z,216.40
2022-11-12T21:16:08.193Z,223.10
2022-11-12T21:19:02.633Z,239.80
2022-11-12T21:21:53.603Z,231.10
2022-11-12T21:24:44.306Z,236.40
2022-11-12T21:27:38.851Z,236.70
2022-11-12T21:30:29.777Z,230.60
2022-11-12T21:33:21.190Z,233.70
2022-11-12T21:36:16.335Z,220.50
2022-11-12T21:39:08.644Z,228.90
2022-11-12T21:41:59.418Z,222.30
2022-11-12T21:47:39.856Z,212.50
2022-11-12T21:50:30.735Z,222.80
2022-11-12T21:53:22.188Z,225.20
2022-11-12T21:56:15.800Z,218.10
2022-11-12T21:59:07.004Z,221.00
2022-11-12T22:01:58.347Z,216.60
2022-11-12T22:04:49.277Z,210.70
2022-11-12T22:07:41.144Z,221.40
2022-11-12T22:10:33.241Z,209.60
2022-11-12T22:13:27.747Z,204.40
2022-11-12T22:16:20.935Z,212.30
2022-11-12T22:19:12.919Z,197.60
2022-11-12T22:22:04.368Z,196.90
2022-11-12T22:24:55.353Z,193.00
2022-11-12T22:27:46.887Z,197.20
2022-11-12T22:30:37.601Z,183.10
2022-11-12T22:33:28.533Z,181.50
2022-11-12T22:36:21.725Z,143.80
2022-11-12T22:39:12.896Z,177.60
2022-11-12T22:44:52.803Z,175.70
2022-11-12T22:47:43.778Z,182.90
2022-11-12T22:53:24.047Z,182.20
2022-11-12T22:56:16.605Z,179.90
2022-11-12T22:59:07.901Z,184.50
2022-11-12T23:01:59.045Z,173.50
2022-11-12T23:04:50.029Z,173.90
2022-11-12T23:10:32.019Z,159.70
2022-11-12T23:13:25.249Z,143.00
2022-11-12T23:16:19.427Z,155.00
2022-11-12T23:19:10.132Z,167.70
2022-11-12T23:22:05.281Z,150.00
2022-11-12T23:24:58.573Z,138.50
2022-11-12T23:27:49.106Z,136.40
2022-11-12T23:30:40.280Z,129.60
2022-11-12T23:33:31.204Z,122.00
2022-11-12T23:36:23.685Z,114.80
2022-11-12T23:39:14.966Z,118.30
2022-11-12T23:42:05.941Z,118.10
2022-11-12T23:44:56.566Z,120.90
2022-11-12T23:47:47.333Z,111.00
2022-11-12T23:50:38.292Z,110.30
2022-11-12T23:53:32.010Z,106.50
2022-11-12T23:56:23.217Z,121.40
2022-11-12T23:59:14.204Z,115.80
